sensor_id;sensor_type;location;lat;lon;timestamp;P1;durP1;ratioP1;P2;durP2;ratioP2
43626;SDS011;29217;52.586;13.442;2023-11-21T00:00:00;21.48;;;8.30;;
43626;SDS011;29217;52.586;13.442;2023-11-21T00:02:25;23.00;;;9.45;;
43626;SDS011;29217;52.586;13.442;2023-11-21T00:04:52;33.17;;;10.77;;
43626;SDS011;29217;52.586;13.442;2023-11-21T00:07:17;23.00;;;7.95;;
43626;SDS011;29217;52.586;13.442;2023-11-21T00:09:43;28.05;;;9.85;;
43626;SDS011;29217;52.586;13.442;2023-11-21T00:12:09;24.05;;;8.82;;
43626;SDS011;29217;52.586;13.442;2023-11-21T00:14:35;27.73;;;10.80;;
43626;SDS011;29217;52.586;13.442;2023-11-21T00:17:02;22.05;;;9.02;;
43626;SDS011;29217;52.586;13.442;2023-11-21T00:19:27;26.95;;;10.15;;
43626;SDS011;29217;52.586;13.442;2023-11-21T00:21:53;31.67;;;10.13;;
43626;SDS011;29217;52.586;13.442;2023-11-21T00:24:19;29.13;;;10.23;;
43626;SDS011;29217;52.586;13.442;2023-11-21T00:26:44;27.85;;;10.23;;
43626;SDS011;29217;52.586;13.442;2023-11-21T00:29:10;32.75;;;9.65;;
43626;SDS011;29217;52.586;13.442;2023-11-21T00:31:36;32.42;;;10.30;;
43626;SDS011;29217;52.586;13.442;2023-11-21T00:34:02;36.25;;;11.18;;
43626;SDS011;29217;52.586;13.442;2023-11-21T00:36:30;35.30;;;11.73;;
43626;SDS011;29217;52.586;13.442;2023-11-21T00:38:56;38.50;;;11.73;;
43626;SDS011;29217;52.586;13.442;2023-11-21T00:41:22;44.55;;;12.23;;
43626;SDS011;29217;52.586;13.442;2023-11-21T00:43:48;42.35;;;12.35;;
43626;SDS011;29217;52.586;13.442;2023-11-21T00:46:14;50.15;;;13.85;;
43626;SDS011;29217;52.586;13.442;2023-11-21T00:48:39;40.45;;;12.68;;
43626;SDS011;29217;52.586;13.442;2023-11-21T00:51:05;46.10;;;14.57;;
43626;SDS011;29217;52.586;13.442;2023-11-21T00:53:31;40.00;;;14.40;;
43626;SDS011;29217;52.586;13.442;2023-11-21T00:55:57;54.13;;;15.02;;
43626;SDS011;29217;52.586;13.442;2023-11-21T00:58:26;50.42;;;15.65;;
43626;SDS011;29217;52.586;13.442;2023-11-21T01:00:52;49.88;;;14.07;;
43626;SDS011;29217;52.586;13.442;2023-11-21T01:03:17;57.67;;;17.63;;
43626;SDS011;29217;52.586;13.442;2023-11-21T01:05:43;48.65;;;15.32;;
43626;SDS011;29217;52.586;13.442;2023-11-21T01:08:10;53.90;;;15.05;;
43626;SDS011;29217;52.586;13.442;2023-11-21T01:10:36;47.28;;;15.70;;
43626;SDS011;29217;52.586;13.442;2023-11-21T01:13:02;42.42;;;13.20;;
43626;SDS011;29217;52.586;13.442;2023-11-21T01:15:30;56.47;;;14.82;;
43626;SDS011;29217;52.586;13.442;2023-11-21T01:17:55;41.53;;;12.45;;
43626;SDS011;29217;52.586;13.442;2023-11-21T01:20:21;45.70;;;14.00;;
43626;SDS011;29217;52.586;13.442;2023-11-21T01:22:46;39.30;;;13.07;;
43626;SDS011;29217;52.586;13.442;2023-11-21T01:25:14;42.42;;;12.60;;
43626;SDS011;29217;52.586;13.442;2023-11-21T01:27:41;45.78;;;11.55;;
43626;SDS011;29217;52.586;13.442;2023-11-21T01:30:07;40.33;;;11.75;;
43626;SDS011;29217;52.586;13.442;2023-11-21T01:32:35;42.67;;;10.82;;
43626;SDS011;29217;52.586;13.442;2023-11-21T01:35:01;36.05;;;11.00;;
43626;SDS011;29217;52.586;13.442;2023-11-21T01:37:27;29.52;;;11.55;;
43626;SDS011;29217;52.586;13.442;2023-11-21T01:39:56;30.98;;;8.95;;
43626;SDS011;29217;52.586;13.442;2023-11-21T01:42:21;28.52;;;8.52;;
43626;SDS011;29217;52.586;13.442;2023-11-21T01:44:47;28.20;;;8.48;;
43626;SDS011;29217;52.586;13.442;2023-11-21T01:47:13;22.67;;;8.07;;
43626;SDS011;29217;52.586;13.442;2023-11-21T01:49:40;30.85;;;9.25;;
43626;SDS011;29217;52.586;13.442;2023-11-21T01:52:10;24.25;;;7.97;;
43626;SDS011;29217;52.586;13.442;2023-11-21T01:54:36;21.70;;;8.18;;
43626;SDS011;29217;52.586;13.442;2023-11-21T01:57:03;24.92;;;7.80;;
43626;SDS011;29217;52.586;13.442;2023-11-21T01:59:34;25.20;;;7.88;;
43626;SDS011;29217;52.586;13.442;2023-11-21T02:02:02;16.08;;;6.65;;
43626;SDS011;29217;52.586;13.442;2023-11-21T02:04:34;23.63;;;7.25;;
43626;SDS011;29217;52.586;13.442;2023-11-21T02:07:01;21.70;;;6.53;;
43626;SDS011;29217;52.586;13.442;2023-11-21T02:09:30;26.58;;;7.43;;
43626;SDS011;29217;52.586;13.442;2023-11-21T02:11:56;16.90;;;6.05;;
43626;SDS011;29217;52.586;13.442;2023-11-21T02:14:23;19.55;;;7.35;;
43626;SDS011;29217;52.586;13.442;2023-11-21T02:16:53;19.80;;;6.13;;
43626;SDS011;29217;52.586;13.442;2023-11-21T02:19:20;22.40;;;7.00;;
43626;SDS011;29217;52.586;13.442;2023-11-21T02:21:49;14.45;;;6.28;;
43626;SDS011;29217;52.586;13.442;2023-11-21T02:24:17;17.25;;;6.82;;
43626;SDS011;29217;52.586;13.442;2023-11-21T02:26:47;15.75;;;7.22;;
43626;SDS011;29217;52.586;13.442;2023-11-21T02:29:18;13.63;;;6.72;;
43626;SDS011;29217;52.586;13.442;2023-11-21T02:31:47;13.90;;;6.40;;
43626;SDS011;29217;52.586;13.442;2023-11-21T02:34:16;17.42;;;6.68;;
43626;SDS011;29217;52.586;13.442;2023-11-21T02:36:43;18.30;;;6.90;;
43626;SDS011;29217;52.586;13.442;2023-11-21T02:39:09;14.93;;;6.43;;
43626;SDS011;29217;52.586;13.442;2023-11-21T02:41:36;13.55;;;6.45;;
43626;SDS011;29217;52.586;13.442;2023-11-21T02:44:05;14.32;;;6.35;;
43626;SDS011;29217;52.586;13.442;2023-11-21T02:46:35;14.52;;;6.03;;
43626;SDS011;29217;52.586;13.442;2023-11-21T02:49:04;12.88;;;5.32;;
43626;SDS011;29217;52.586;13.442;2023-11-21T02:51:35;14.40;;;6.18;;
43626;SDS011;29217;52.586;13.442;2023-11-21T02:54:03;17.80;;;6.70;;
43626;SDS011;29217;52.586;13.442;2023-11-21T02:56:31;12.65;;;6.25;;
43626;SDS011;29217;52.586;13.442;2023-11-21T02:58:59;19.35;;;6.25;;
43626;SDS011;29217;52.586;13.442;2023-11-21T03:01:25;13.23;;;6.00;;
43626;SDS011;29217;52.586;13.442;2023-11-21T03:03:52;10.88;;;5.00;;
43626;SDS011;29217;52.586;13.442;2023-11-21T03:06:18;12.18;;;5.78;;
43626;SDS011;29217;52.586;13.442;2023-11-21T03:08:44;10.70;;;4.97;;
43626;SDS011;29217;52.586;13.442;2023-11-21T03:11:10;13.27;;;6.85;;
43626;SDS011;29217;52.586;13.442;2023-11-21T03:13:35;10.30;;;5.55;;
43626;SDS011;29217;52.586;13.442;2023-11-21T03:16:01;9.88;;;5.25;;
43626;SDS011;29217;52.586;13.442;2023-11-21T03:18:27;15.10;;;5.80;;
43626;SDS011;29217;52.586;13.442;2023-11-21T03:20:54;15.60;;;5.75;;
43626;SDS011;29217;52.586;13.442;2023-11-21T03:23:20;12.85;;;6.28;;
43626;SDS011;29217;52.586;13.442;2023-11-21T03:25:45;11.02;;;5.40;;
43626;SDS011;29217;52.586;13.442;2023-11-21T03:28:11;12.18;;;5.32;;
43626;SDS011;29217;52.586;13.442;2023-11-21T03:30:36;14.63;;;5.80;;
43626;SDS011;29217;52.586;13.442;2023-11-21T03:33:02;9.95;;;5.00;;
43626;SDS011;29217;52.586;13.442;2023-11-21T03:35:28;15.18;;;6.35;;
43626;SDS011;29217;52.586;13.442;2023-11-21T03:37:53;11.43;;;6.07;;
43626;SDS011;29217;52.586;13.442;2023-11-21T03:40:19;13.05;;;6.65;;
43626;SDS011;29217;52.586;13.442;2023-11-21T03:42:46;11.70;;;5.70;;
43626;SDS011;29217;52.586;13.442;2023-11-21T03:45:12;10.60;;;5.30;;
43626;SDS011;29217;52.586;13.442;2023-11-21T03:47:38;11.45;;;5.72;;
43626;SDS011;29217;52.586;13.442;2023-11-21T03:50:04;15.27;;;6.22;;
43626;SDS011;29217;52.586;13.442;2023-11-21T03:52:30;12.05;;;6.13;;
43626;SDS011;29217;52.586;13.442;2023-11-21T03:54:56;13.85;;;5.80;;
43626;SDS011;29217;52.586;13.442;2023-11-21T03:57:21;10.30;;;5.05;;
43626;SDS011;29217;52.586;13.442;2023-11-21T03:59:47;12.50;;;5.82;;
43626;SDS011;29217;52.586;13.442;2023-11-21T04:02:12;9.95;;;4.70;;
43626;SDS011;29217;52.586;13.442;2023-11-21T04:04:38;12.02;;;5.03;;
43626;SDS011;29217;52.586;13.442;2023-11-21T04:07:04;11.93;;;5.30;;
43626;SDS011;29217;52.586;13.442;2023-11-21T04:09:30;10.82;;;5.55;;
43626;SDS011;29217;52.586;13.442;2023-11-21T04:11:55;13.85;;;4.82;;
43626;SDS011;29217;52.586;13.442;2023-11-21T04:14:21;14.27;;;5.70;;
43626;SDS011;29217;52.586;13.442;2023-11-21T04:16:47;10.60;;;5.13;;
43626;SDS011;29217;52.586;13.442;2023-11-21T04:19:13;10.93;;;4.72;;
43626;SDS011;29217;52.586;13.442;2023-11-21T04:21:40;9.20;;;4.57;;
43626;SDS011;29217;52.586;13.442;2023-11-21T04:24:06;11.32;;;5.53;;
43626;SDS011;29217;52.586;13.442;2023-11-21T04:26:32;11.60;;;5.13;;
43626;SDS011;29217;52.586;13.442;2023-11-21T04:28:57;11.00;;;4.70;;
43626;SDS011;29217;52.586;13.442;2023-11-21T04:31:23;9.40;;;4.68;;
43626;SDS011;29217;52.586;13.442;2023-11-21T04:33:49;7.90;;;4.75;;
43626;SDS011;29217;52.586;13.442;2023-11-21T04:36:14;10.60;;;5.20;;
43626;SDS011;29217;52.586;13.442;2023-11-21T04:38:40;10.07;;;4.95;;
43626;SDS011;29217;52.586;13.442;2023-11-21T04:41:06;10.80;;;4.93;;
43626;SDS011;29217;52.586;13.442;2023-11-21T04:43:31;9.13;;;4.78;;
43626;SDS011;29217;52.586;13.442;2023-11-21T04:45:57;11.38;;;5.57;;
43626;SDS011;29217;52.586;13.442;2023-11-21T04:48:22;10.82;;;4.60;;
43626;SDS011;29217;52.586;13.442;2023-11-21T04:50:48;9.95;;;4.38;;
43626;SDS011;29217;52.586;13.442;2023-11-21T04:53:14;8.25;;;3.95;;
43626;SDS011;29217;52.586;13.442;2023-11-21T04:55:42;10.07;;;5.35;;
43626;SDS011;29217;52.586;13.442;2023-11-21T04:58:09;9.82;;;4.35;;
43626;SDS011;29217;52.586;13.442;2023-11-21T05:00:35;8.48;;;4.28;;
43626;SDS011;29217;52.586;13.442;2023-11-21T05:03:01;9.13;;;4.60;;
43626;SDS011;29217;52.586;13.442;2023-11-21T05:05:28;8.98;;;4.18;;
43626;SDS011;29217;52.586;13.442;2023-11-21T05:07:54;8.10;;;4.53;;
43626;SDS011;29217;52.586;13.442;2023-11-21T05:10:20;11.27;;;4.82;;
43626;SDS011;29217;52.586;13.442;2023-11-21T05:12:47;9.57;;;5.20;;
43626;SDS011;29217;52.586;13.442;2023-11-21T05:15:15;8.55;;;4.15;;
43626;SDS011;29217;52.586;13.442;2023-11-21T05:17:42;10.27;;;4.88;;
43626;SDS011;29217;52.586;13.442;2023-11-21T05:20:12;13.27;;;4.78;;
43626;SDS011;29217;52.586;13.442;2023-11-21T05:22:39;10.50;;;4.75;;
43626;SDS011;29217;52.586;13.442;2023-11-21T05:25:07;9.35;;;4.65;;
43626;SDS011;29217;52.586;13.442;2023-11-21T05:27:33;10.15;;;4.95;;
43626;SDS011;29217;52.586;13.442;2023-11-21T05:30:00;12.52;;;5.97;;
43626;SDS011;29217;52.586;13.442;2023-11-21T05:32:30;11.80;;;5.45;;
43626;SDS011;29217;52.586;13.442;2023-11-21T05:34:56;15.02;;;6.20;;
43626;SDS011;29217;52.586;13.442;2023-11-21T05:37:22;10.90;;;5.80;;
43626;SDS011;29217;52.586;13.442;2023-11-21T05:39:48;10.88;;;5.35;;
43626;SDS011;29217;52.586;13.442;2023-11-21T05:42:14;12.05;;;5.30;;
43626;SDS011;29217;52.586;13.442;2023-11-21T05:44:43;9.07;;;5.03;;
43626;SDS011;29217;52.586;13.442;2023-11-21T05:47:08;9.52;;;4.88;;
43626;SDS011;29217;52.586;13.442;2023-11-21T05:49:34;8.95;;;4.88;;
43626;SDS011;29217;52.586;13.442;2023-11-21T05:52:01;9.60;;;4.38;;
43626;SDS011;29217;52.586;13.442;2023-11-21T05:54:26;8.95;;;4.28;;
43626;SDS011;29217;52.586;13.442;2023-11-21T05:56:52;11.43;;;5.30;;
43626;SDS011;29217;52.586;13.442;2023-11-21T05:59:17;7.78;;;4.55;;
43626;SDS011;29217;52.586;13.442;2023-11-21T06:01:43;8.75;;;4.68;;
43626;SDS011;29217;52.586;13.442;2023-11-21T06:04:11;8.07;;;4.18;;
43626;SDS011;29217;52.586;13.442;2023-11-21T06:06:37;9.32;;;3.80;;
43626;SDS011;29217;52.586;13.442;2023-11-21T06:09:04;6.53;;;3.80;;
43626;SDS011;29217;52.586;13.442;2023-11-21T06:11:31;9.57;;;4.68;;
43626;SDS011;29217;52.586;13.442;2023-11-21T06:13:56;8.07;;;3.92;;
43626;SDS011;29217;52.586;13.442;2023-11-21T06:16:23;7.18;;;3.38;;
43626;SDS011;29217;52.586;13.442;2023-11-21T06:18:49;7.78;;;3.92;;
43626;SDS011;29217;52.586;13.442;2023-11-21T06:21:14;7.95;;;3.97;;
43626;SDS011;29217;52.586;13.442;2023-11-21T06:23:41;6.85;;;3.65;;
43626;SDS011;29217;52.586;13.442;2023-11-21T06:26:07;6.93;;;3.47;;
43626;SDS011;29217;52.586;13.442;2023-11-21T06:28:34;7.95;;;3.88;;
43626;SDS011;29217;52.586;13.442;2023-11-21T06:31:01;7.85;;;3.97;;
43626;SDS011;29217;52.586;13.442;2023-11-21T06:33:32;9.65;;;4.78;;
43626;SDS011;29217;52.586;13.442;2023-11-21T06:35:58;7.10;;;3.83;;
43626;SDS011;29217;52.586;13.442;2023-11-21T06:38:24;8.30;;;3.85;;
43626;SDS011;29217;52.586;13.442;2023-11-21T06:40:49;7.53;;;4.05;;
43626;SDS011;29217;52.586;13.442;2023-11-21T06:43:15;7.40;;;3.55;;
43626;SDS011;29217;52.586;13.442;2023-11-21T06:45:40;5.65;;;3.35;;
43626;SDS011;29217;52.586;13.442;2023-11-21T06:48:06;6.45;;;3.30;;
43626;SDS011;29217;52.586;13.442;2023-11-21T06:50:32;9.77;;;3.55;;
43626;SDS011;29217;52.586;13.442;2023-11-21T06:52:57;7.93;;;4.30;;
43626;SDS011;29217;52.586;13.442;2023-11-21T06:55:23;8.90;;;4.25;;
43626;SDS011;29217;52.586;13.442;2023-11-21T06:57:48;6.45;;;3.50;;
43626;SDS011;29217;52.586;13.442;2023-11-21T07:00:15;5.20;;;2.90;;
43626;SDS011;29217;52.586;13.442;2023-11-21T07:02:42;6.43;;;3.10;;
43626;SDS011;29217;52.586;13.442;2023-11-21T07:05:08;5.72;;;3.50;;
43626;SDS011;29217;52.586;13.442;2023-11-21T07:07:34;6.32;;;3.63;;
43626;SDS011;29217;52.586;13.442;2023-11-21T07:10:00;6.10;;;3.33;;
43626;SDS011;29217;52.586;13.442;2023-11-21T07:12:28;6.63;;;3.25;;
43626;SDS011;29217;52.586;13.442;2023-11-21T07:14:55;6.53;;;3.03;;
43626;SDS011;29217;52.586;13.442;2023-11-21T07:17:20;6.32;;;3.67;;
43626;SDS011;29217;52.586;13.442;2023-11-21T07:19:48;7.30;;;3.90;;
43626;SDS011;29217;52.586;13.442;2023-11-21T07:22:15;6.68;;;3.88;;
43626;SDS011;29217;52.586;13.442;2023-11-21T07:24:47;6.63;;;3.35;;
43626;SDS011;29217;52.586;13.442;2023-11-21T07:27:13;7.28;;;3.58;;
43626;SDS011;29217;52.586;13.442;2023-11-21T07:29:39;5.18;;;3.17;;
43626;SDS011;29217;52.586;13.442;2023-11-21T07:32:05;9.85;;;3.70;;
43626;SDS011;29217;52.586;13.442;2023-11-21T07:34:31;8.25;;;3.35;;
43626;SDS011;29217;52.586;13.442;2023-11-21T07:36:56;6.53;;;3.78;;
43626;SDS011;29217;52.586;13.442;2023-11-21T07:39:22;6.43;;;3.70;;
43626;SDS011;29217;52.586;13.442;2023-11-21T07:41:48;6.30;;;3.35;;
43626;SDS011;29217;52.586;13.442;2023-11-21T07:44:15;5.95;;;3.50;;
43626;SDS011;29217;52.586;13.442;2023-11-21T07:46:42;8.13;;;3.33;;
43626;SDS011;29217;52.586;13.442;2023-11-21T07:49:08;7.03;;;4.00;;
43626;SDS011;29217;52.586;13.442;2023-11-21T07:51:34;5.85;;;3.70;;
43626;SDS011;29217;52.586;13.442;2023-11-21T07:53:59;6.30;;;3.33;;
43626;SDS011;29217;52.586;13.442;2023-11-21T07:56:25;5.72;;;2.72;;
43626;SDS011;29217;52.586;13.442;2023-11-21T07:58:51;8.88;;;3.10;;
43626;SDS011;29217;52.586;13.442;2023-11-21T08:01:17;4.68;;;2.60;;
43626;SDS011;29217;52.586;13.442;2023-11-21T08:03:42;5.15;;;2.90;;
43626;SDS011;29217;52.586;13.442;2023-11-21T08:06:09;4.90;;;2.92;;
43626;SDS011;29217;52.586;13.442;2023-11-21T08:08:35;6.82;;;3.25;;
43626;SDS011;29217;52.586;13.442;2023-11-21T08:11:01;6.07;;;2.45;;
43626;SDS011;29217;52.586;13.442;2023-11-21T08:13:28;6.88;;;2.90;;
43626;SDS011;29217;52.586;13.442;2023-11-21T08:15:56;4.80;;;2.95;;
43626;SDS011;29217;52.586;13.442;2023-11-21T08:18:23;5.20;;;2.42;;
43626;SDS011;29217;52.586;13.442;2023-11-21T08:20:49;4.18;;;2.40;;
43626;SDS011;29217;52.586;13.442;2023-11-21T08:23:15;5.53;;;2.95;;
43626;SDS011;29217;52.586;13.442;2023-11-21T08:25:42;4.38;;;2.97;;
43626;SDS011;29217;52.586;13.442;2023-11-21T08:28:08;5.53;;;2.50;;
43626;SDS011;29217;52.586;13.442;2023-11-21T08:30:34;4.82;;;2.90;;
43626;SDS011;29217;52.586;13.442;2023-11-21T08:33:00;5.82;;;3.05;;
43626;SDS011;29217;52.586;13.442;2023-11-21T08:35:26;4.55;;;2.88;;
43626;SDS011;29217;52.586;13.442;2023-11-21T08:37:51;6.28;;;2.75;;
43626;SDS011;29217;52.586;13.442;2023-11-21T08:40:20;4.60;;;3.00;;
43626;SDS011;29217;52.586;13.442;2023-11-21T08:42:46;5.40;;;3.20;;
43626;SDS011;29217;52.586;13.442;2023-11-21T08:45:13;5.90;;;3.05;;
43626;SDS011;29217;52.586;13.442;2023-11-21T08:47:39;7.18;;;3.53;;
43626;SDS011;29217;52.586;13.442;2023-11-21T08:50:06;11.15;;;3.85;;
43626;SDS011;29217;52.586;13.442;2023-11-21T08:52:33;8.25;;;3.58;;
43626;SDS011;29217;52.586;13.442;2023-11-21T08:54:59;11.15;;;3.60;;
43626;SDS011;29217;52.586;13.442;2023-11-21T08:57:32;9.63;;;5.07;;
43626;SDS011;29217;52.586;13.442;2023-11-21T09:00:04;9.13;;;3.83;;
43626;SDS011;29217;52.586;13.442;2023-11-21T09:02:37;13.52;;;4.13;;
43626;SDS011;29217;52.586;13.442;2023-11-21T09:05:07;11.10;;;4.20;;
43626;SDS011;29217;52.586;13.442;2023-11-21T09:07:34;9.73;;;4.03;;
43626;SDS011;29217;52.586;13.442;2023-11-21T09:10:00;12.20;;;4.03;;
43626;SDS011;29217;52.586;13.442;2023-11-21T09:12:26;14.77;;;4.05;;
43626;SDS011;29217;52.586;13.442;2023-11-21T09:14:52;12.00;;;3.78;;
43626;SDS011;29217;52.586;13.442;2023-11-21T09:17:17;15.10;;;5.22;;
43626;SDS011;29217;52.586;13.442;2023-11-21T09:19:43;12.88;;;3.90;;
43626;SDS011;29217;52.586;13.442;2023-11-21T09:22:12;11.63;;;4.05;;
43626;SDS011;29217;52.586;13.442;2023-11-21T09:24:37;14.10;;;4.25;;
43626;SDS011;29217;52.586;13.442;2023-11-21T09:27:03;14.68;;;4.20;;
43626;SDS011;29217;52.586;13.442;2023-11-21T09:29:30;11.15;;;4.22;;
43626;SDS011;29217;52.586;13.442;2023-11-21T09:31:56;16.83;;;4.45;;
43626;SDS011;29217;52.586;13.442;2023-11-21T09:34:24;10.20;;;4.70;;
43626;SDS011;29217;52.586;13.442;2023-11-21T09:36:50;10.10;;;3.72;;
43626;SDS011;29217;52.586;13.442;2023-11-21T09:39:16;8.15;;;3.55;;
43626;SDS011;29217;52.586;13.442;2023-11-21T09:41:44;5.63;;;3.22;;
43626;SDS011;29217;52.586;13.442;2023-11-21T09:44:17;8.18;;;2.95;;
43626;SDS011;29217;52.586;13.442;2023-11-21T09:46:45;10.40;;;3.50;;
43626;SDS011;29217;52.586;13.442;2023-11-21T09:49:14;5.68;;;3.13;;
43626;SDS011;29217;52.586;13.442;2023-11-21T09:51:43;11.52;;;3.10;;
43626;SDS011;29217;52.586;13.442;2023-11-21T09:54:11;6.28;;;3.42;;
43626;SDS011;29217;52.586;13.442;2023-11-21T09:56:41;4.18;;;2.63;;
43626;SDS011;29217;52.586;13.442;2023-11-21T09:59:07;8.57;;;3.08;;
43626;SDS011;29217;52.586;13.442;2023-11-21T10:01:38;5.22;;;2.65;;
43626;SDS011;29217;52.586;13.442;2023-11-21T10:04:05;7.60;;;2.85;;
43626;SDS011;29217;52.586;13.442;2023-11-21T10:06:36;8.18;;;3.05;;
43626;SDS011;29217;52.586;13.442;2023-11-21T10:09:11;3.75;;;2.40;;
43626;SDS011;29217;52.586;13.442;2023-11-21T10:11:42;3.00;;;2.17;;
43626;SDS011;29217;52.586;13.442;2023-11-21T10:14:11;4.75;;;2.28;;
43626;SDS011;29217;52.586;13.442;2023-11-21T10:16:39;4.22;;;2.65;;
43626;SDS011;29217;52.586;13.442;2023-11-21T10:19:07;5.05;;;2.95;;
43626;SDS011;29217;52.586;13.442;2023-11-21T10:21:35;2.85;;;2.13;;
43626;SDS011;29217;52.586;13.442;2023-11-21T10:24:05;5.10;;;2.17;;
43626;SDS011;29217;52.586;13.442;2023-11-21T10:26:31;2.60;;;1.75;;
43626;SDS011;29217;52.586;13.442;2023-11-21T10:28:58;4.88;;;2.45;;
43626;SDS011;29217;52.586;13.442;2023-11-21T10:31:29;3.90;;;2.22;;
43626;SDS011;29217;52.586;13.442;2023-11-21T10:36:41;3.50;;;2.47;;
43626;SDS011;29217;52.586;13.442;2023-11-21T10:39:06;4.18;;;2.35;;
43626;SDS011;29217;52.586;13.442;2023-11-21T10:41:32;3.95;;;2.35;;
43626;SDS011;29217;52.586;13.442;2023-11-21T10:44:00;3.22;;;2.25;;
43626;SDS011;29217;52.586;13.442;2023-11-21T10:46:29;3.42;;;2.00;;
43626;SDS011;29217;52.586;13.442;2023-11-21T10:48:55;4.35;;;1.85;;
43626;SDS011;29217;52.586;13.442;2023-11-21T10:51:21;2.92;;;2.20;;
43626;SDS011;29217;52.586;13.442;2023-11-21T10:53:47;2.60;;;2.20;;
43626;SDS011;29217;52.586;13.442;2023-11-21T10:56:15;4.88;;;2.60;;
43626;SDS011;29217;52.586;13.442;2023-11-21T10:58:44;6.13;;;2.83;;
43626;SDS011;29217;52.586;13.442;2023-11-21T11:01:10;3.22;;;2.03;;
43626;SDS011;29217;52.586;13.442;2023-11-21T11:03:39;3.45;;;2.35;;
43626;SDS011;29217;52.586;13.442;2023-11-21T11:06:06;3.47;;;2.20;;
43626;SDS011;29217;52.586;13.442;2023-11-21T11:08:36;3.85;;;2.38;;
43626;SDS011;29217;52.586;13.442;2023-11-21T11:11:02;2.53;;;2.22;;
43626;SDS011;29217;52.586;13.442;2023-11-21T11:13:30;3.65;;;2.65;;
43626;SDS011;29217;52.586;13.442;2023-11-21T11:15:59;4.35;;;2.22;;
43626;SDS011;29217;52.586;13.442;2023-11-21T11:18:32;3.78;;;2.20;;
43626;SDS011;29217;52.586;13.442;2023-11-21T11:21:05;4.88;;;2.42;;
43626;SDS011;29217;52.586;13.442;2023-11-21T11:34:35;2.88;;;1.95;;
43626;SDS011;29217;52.586;13.442;2023-11-21T11:37:07;2.83;;;2.20;;
43626;SDS011;29217;52.586;13.442;2023-11-21T11:39:40;5.57;;;2.90;;
43626;SDS011;29217;52.586;13.442;2023-11-21T11:42:13;6.35;;;2.95;;
43626;SDS011;29217;52.586;13.442;2023-11-21T11:47:22;6.43;;;2.58;;
43626;SDS011;29217;52.586;13.442;2023-11-21T11:50:22;4.97;;;2.22;;
43626;SDS011;29217;52.586;13.442;2023-11-21T11:52:43;3.00;;;2.10;;
43626;SDS011;29217;52.586;13.442;2023-11-21T11:57:39;2.83;;;2.33;;
43626;SDS011;29217;52.586;13.442;2023-11-21T12:02:59;4.53;;;2.58;;
43626;SDS011;29217;52.586;13.442;2023-11-21T12:05:28;7.78;;;3.63;;
43626;SDS011;29217;52.586;13.442;2023-11-21T12:07:57;2.72;;;2.30;;
43626;SDS011;29217;52.586;13.442;2023-11-21T12:10:29;6.07;;;3.00;;
43626;SDS011;29217;52.586;13.442;2023-11-21T12:12:57;4.47;;;2.45;;
43626;SDS011;29217;52.586;13.442;2023-11-21T12:15:26;3.65;;;2.40;;
43626;SDS011;29217;52.586;13.442;2023-11-21T12:17:54;5.03;;;2.72;;
43626;SDS011;29217;52.586;13.442;2023-11-21T12:20:20;3.40;;;2.55;;
43626;SDS011;29217;52.586;13.442;2023-11-21T12:22:50;2.88;;;2.40;;
43626;SDS011;29217;52.586;13.442;2023-11-21T12:25:17;3.65;;;2.30;;
43626;SDS011;29217;52.586;13.442;2023-11-21T12:27:54;4.85;;;2.22;;
43626;SDS011;29217;52.586;13.442;2023-11-21T12:30:24;4.72;;;2.60;;
43626;SDS011;29217;52.586;13.442;2023-11-21T12:32:57;5.97;;;2.67;;
43626;SDS011;29217;52.586;13.442;2023-11-21T12:35:25;3.75;;;2.35;;
43626;SDS011;29217;52.586;13.442;2023-11-21T12:37:51;5.25;;;3.08;;
43626;SDS011;29217;52.586;13.442;2023-11-21T12:40:18;3.78;;;2.70;;
43626;SDS011;29217;52.586;13.442;2023-11-21T12:42:45;5.13;;;3.20;;
43626;SDS011;29217;52.586;13.442;2023-11-21T12:47:45;5.80;;;3.38;;
43626;SDS011;29217;52.586;13.442;2023-11-21T12:50:15;6.15;;;3.67;;
43626;SDS011;29217;52.586;13.442;2023-11-21T12:52:46;4.63;;;3.22;;
43626;SDS011;29217;52.586;13.442;2023-11-21T12:55:22;8.90;;;3.75;;
43626;SDS011;29217;52.586;13.442;2023-11-21T12:57:49;5.82;;;3.33;;
43626;SDS011;29217;52.586;13.442;2023-11-21T13:00:31;8.98;;;4.15;;
43626;SDS011;29217;52.586;13.442;2023-11-21T13:02:58;5.82;;;3.42;;
43626;SDS011;29217;52.586;13.442;2023-11-21T13:05:27;8.95;;;4.30;;
43626;SDS011;29217;52.586;13.442;2023-11-21T13:08:04;7.10;;;3.60;;
43626;SDS011;29217;52.586;13.442;2023-11-21T13:10:33;7.90;;;4.55;;
43626;SDS011;29217;52.586;13.442;2023-11-21T13:13:02;6.07;;;3.55;;
43626;SDS011;29217;52.586;13.442;2023-11-21T13:15:30;6.07;;;2.85;;
43626;SDS011;29217;52.586;13.442;2023-11-21T13:17:57;6.05;;;3.05;;
43626;SDS011;29217;52.586;13.442;2023-11-21T13:20:26;6.00;;;3.78;;
43626;SDS011;29217;52.586;13.442;2023-11-21T13:22:54;4.88;;;3.00;;
43626;SDS011;29217;52.586;13.442;2023-11-21T13:25:24;11.23;;;4.22;;
43626;SDS011;29217;52.586;13.442;2023-11-21T13:27:53;11.07;;;3.55;;
43626;SDS011;29217;52.586;13.442;2023-11-21T13:30:25;9.85;;;4.88;;
43626;SDS011;29217;52.586;13.442;2023-11-21T13:32:55;8.05;;;4.28;;
43626;SDS011;29217;52.586;13.442;2023-11-21T13:35:27;6.13;;;3.40;;
43626;SDS011;29217;52.586;13.442;2023-11-21T13:37:57;8.57;;;3.97;;
43626;SDS011;29217;52.586;13.442;2023-11-21T13:40:32;16.73;;;7.35;;
43626;SDS011;29217;52.586;13.442;2023-11-21T13:42:59;19.08;;;9.70;;
43626;SDS011;29217;52.586;13.442;2023-11-21T13:45:29;9.30;;;4.38;;
43626;SDS011;29217;52.586;13.442;2023-11-21T13:47:56;8.60;;;3.95;;
43626;SDS011;29217;52.586;13.442;2023-11-21T13:50:26;15.00;;;5.72;;
43626;SDS011;29217;52.586;13.442;2023-11-21T13:52:58;13.80;;;5.43;;
43626;SDS011;29217;52.586;13.442;2023-11-21T13:55:35;21.35;;;8.95;;
43626;SDS011;29217;52.586;13.442;2023-11-21T13:58:02;13.43;;;6.65;;
43626;SDS011;29217;52.586;13.442;2023-11-21T14:00:29;9.35;;;5.28;;
43626;SDS011;29217;52.586;13.442;2023-11-21T14:03:21;10.57;;;5.22;;
43626;SDS011;29217;52.586;13.442;2023-11-21T14:05:48;10.90;;;5.38;;
43626;SDS011;29217;52.586;13.442;2023-11-21T14:08:20;11.80;;;5.55;;
43626;SDS011;29217;52.586;13.442;2023-11-21T14:10:49;15.20;;;6.93;;
43626;SDS011;29217;52.586;13.442;2023-11-21T14:13:18;12.45;;;6.47;;
43626;SDS011;29217;52.586;13.442;2023-11-21T14:15:48;24.40;;;8.43;;
43626;SDS011;29217;52.586;13.442;2023-11-21T14:18:16;14.93;;;6.65;;
43626;SDS011;29217;52.586;13.442;2023-11-21T14:20:46;15.15;;;6.93;;
43626;SDS011;29217;52.586;13.442;2023-11-21T14:23:12;16.63;;;7.43;;
43626;SDS011;29217;52.586;13.442;2023-11-21T14:25:37;13.88;;;7.50;;
43626;SDS011;29217;52.586;13.442;2023-11-21T14:28:04;24.90;;;8.40;;
43626;SDS011;29217;52.586;13.442;2023-11-21T14:30:31;18.77;;;7.50;;
43626;SDS011;29217;52.586;13.442;2023-11-21T14:32:59;16.63;;;9.60;;
43626;SDS011;29217;52.586;13.442;2023-11-21T14:35:25;21.58;;;10.52;;
43626;SDS011;29217;52.586;13.442;2023-11-21T14:37:51;20.50;;;8.30;;
43626;SDS011;29217;52.586;13.442;2023-11-21T14:40:17;19.23;;;7.72;;
43626;SDS011;29217;52.586;13.442;2023-11-21T14:42:47;24.77;;;9.20;;
43626;SDS011;29217;52.586;13.442;2023-11-21T14:45:13;20.05;;;8.77;;
43626;SDS011;29217;52.586;13.442;2023-11-21T14:47:44;14.43;;;7.47;;
43626;SDS011;29217;52.586;13.442;2023-11-21T14:50:16;28.73;;;9.55;;